createdAt,value
2017-07-03T00:00:28.817Z,99.90
2017-07-03T00:02:55.081Z,99.90
2017-07-03T00:05:21.376Z,99.90
2017-07-03T00:07:47.638Z,99.90
2017-07-03T00:10:13.921Z,99.90
2017-07-03T00:12:40.197Z,99.90
2017-07-03T00:15:06.489Z,99.90
2017-07-03T00:17:32.778Z,99.90
2017-07-03T00:19:59.041Z,99.90
2017-07-03T00:22:25.315Z,99.90
2017-07-03T00:24:51.631Z,99.90
2017-07-03T00:27:17.921Z,99.90
2017-07-03T00:29:44.953Z,99.90
2017-07-03T00:32:11.961Z,99.90
2017-07-03T00:34:38.253Z,99.90
2017-07-03T00:37:04.549Z,99.90
2017-07-03T00:39:31.579Z,99.90
2017-07-03T00:41:57.834Z,99.90
2017-07-03T00:44:24.117Z,99.90
2017-07-03T00:46:50.385Z,99.90
2017-07-03T00:49:17.475Z,99.90
2017-07-03T00:51:43.761Z,99.90
2017-07-03T00:54:10.030Z,99.90
2017-07-03T00:56:36.300Z,99.90
2017-07-03T00:59:02.582Z,99.90
2017-07-03T01:01:29.869Z,99.90
2017-07-03T01:03:56.142Z,99.90
2017-07-03T01:06:22.453Z,99.90
2017-07-03T01:08:48.717Z,99.90
2017-07-03T01:11:15.006Z,99.90
2017-07-03T01:13:41.301Z,99.90
2017-07-03T01:16:07.572Z,99.90
2017-07-03T01:18:33.854Z,99.90
2017-07-03T01:21:00.125Z,99.90
2017-07-03T01:23:26.385Z,99.90
2017-07-03T01:25:52.689Z,99.90
2017-07-03T01:28:19.700Z,99.90
2017-07-03T01:30:45.982Z,99.90
2017-07-03T01:33:12.276Z,99.90
2017-07-03T01:35:38.545Z,99.90
2017-07-03T01:38:04.842Z,99.90
2017-07-03T01:40:31.130Z,99.90
2017-07-03T01:42:57.403Z,99.90
2017-07-03T01:45:23.722Z,99.90
2017-07-03T01:47:50.034Z,99.90
2017-07-03T01:50:16.360Z,99.90
2017-07-03T01:52:42.653Z,99.90
2017-07-03T01:55:08.948Z,99.90
2017-07-03T01:57:35.217Z,99.90
2017-07-03T02:00:01.486Z,99.90
2017-07-03T02:02:27.785Z,99.90
2017-07-03T02:04:54.071Z,99.90
2017-07-03T02:07:21.102Z,99.90
2017-07-03T02:09:47.373Z,99.90
2017-07-03T02:12:13.666Z,99.90
2017-07-03T02:14:41.966Z,99.90
2017-07-03T02:17:08.234Z,99.90
2017-07-03T02:19:34.565Z,99.90
2017-07-03T02:22:00.842Z,99.90
2017-07-03T02:24:27.854Z,99.90
2017-07-03T02:26:54.137Z,99.90
2017-07-03T02:29:20.410Z,99.90
2017-07-03T02:31:46.674Z,99.90
2017-07-03T02:34:12.941Z,99.90
2017-07-03T02:36:39.222Z,99.90
2017-07-03T02:39:05.525Z,99.90
2017-07-03T02:41:31.794Z,99.90
2017-07-03T02:43:58.060Z,99.90
2017-07-03T02:46:24.366Z,99.90
2017-07-03T02:48:50.629Z,99.90
2017-07-03T02:53:49.441Z,99.90
2017-07-03T02:56:15.712Z,99.90
2017-07-03T02:58:43.029Z,99.90
2017-07-03T03:01:10.313Z,99.90
2017-07-03T03:03:37.322Z,99.90
2017-07-03T03:06:03.601Z,99.90
2017-07-03T03:08:29.867Z,99.90
2017-07-03T03:10:56.149Z,99.90
2017-07-03T03:13:23.165Z,99.90
2017-07-03T03:15:49.446Z,99.90
2017-07-03T03:18:15.718Z,99.90
2017-07-03T03:20:41.985Z,99.90
2017-07-03T03:23:09.009Z,99.90
2017-07-03T03:25:35.274Z,99.90
2017-07-03T03:28:01.584Z,99.90
2017-07-03T03:30:28.636Z,99.90
2017-07-03T03:32:55.649Z,99.90
2017-07-03T03:35:21.930Z,99.90
2017-07-03T03:37:48.229Z,99.90
2017-07-03T03:40:14.485Z,99.90
2017-07-03T03:42:40.745Z,99.90
2017-07-03T03:45:07.020Z,99.90
2017-07-03T03:47:34.053Z,99.90
2017-07-03T03:50:00.325Z,99.90
2017-07-03T03:52:26.646Z,99.90
2017-07-03T03:54:52.910Z,99.90
2017-07-03T03:57:19.218Z,99.90
2017-07-03T03:59:45.510Z,99.90
2017-07-03T04:02:12.512Z,99.90
2017-07-03T04:04:38.774Z,99.90
2017-07-03T04:07:05.045Z,99.90
2017-07-03T04:09:31.329Z,99.90
2017-07-03T04:11:57.620Z,99.90
2017-07-03T04:14:23.887Z,99.90
2017-07-03T04:16:50.191Z,99.90
2017-07-03T04:19:16.465Z,99.90
2017-07-03T04:21:43.750Z,99.90
2017-07-03T04:24:10.042Z,99.90
2017-07-03T04:26:37.049Z,99.90
2017-07-03T04:29:03.338Z,99.90
2017-07-03T04:31:29.595Z,99.90
2017-07-03T04:33:55.897Z,99.90
2017-07-03T04:36:22.169Z,99.90
2017-07-03T04:38:48.427Z,99.90
2017-07-03T04:41:14.693Z,99.90
2017-07-03T04:43:40.945Z,99.90
2017-07-03T04:46:07.201Z,99.90
2017-07-03T04:48:33.482Z,99.90
2017-07-03T04:50:59.735Z,99.90
2017-07-03T04:53:25.985Z,99.90
2017-07-03T04:55:52.297Z,99.90
2017-07-03T04:58:18.560Z,99.90
2017-07-03T05:00:45.577Z,99.90
2017-07-03T05:03:11.856Z,99.90
2017-07-03T05:05:38.124Z,99.90
2017-07-03T05:08:04.410Z,99.90
2017-07-03T05:10:30.674Z,99.90
2017-07-03T05:12:56.934Z,99.90
2017-07-03T05:15:23.216Z,99.90
2017-07-03T05:17:49.497Z,99.90
2017-07-03T05:20:15.788Z,99.90
2017-07-03T05:22:42.070Z,99.90
2017-07-03T05:25:09.069Z,99.90
2017-07-03T05:27:35.331Z,99.90
2017-07-03T05:30:01.611Z,99.90
2017-07-03T05:32:27.895Z,99.90
2017-07-03T05:34:54.161Z,99.90
2017-07-03T05:37:20.441Z,99.90
2017-07-03T05:39:46.700Z,99.90
2017-07-03T05:42:12.994Z,99.90
2017-07-03T05:44:39.249Z,99.90
2017-07-03T05:47:06.546Z,99.90
2017-07-03T05:49:32.853Z,99.90
2017-07-03T05:51:59.137Z,99.90
2017-07-03T05:54:25.412Z,99.90
2017-07-03T05:56:51.701Z,99.90
2017-07-03T05:59:18.953Z,99.90
2017-07-03T06:01:45.241Z,99.90
2017-07-03T06:04:11.505Z,99.90
2017-07-03T06:06:37.762Z,99.90
2017-07-03T06:09:04.773Z,99.90
2017-07-03T06:11:31.035Z,99.90
2017-07-03T06:13:57.321Z,99.90
2017-07-03T06:16:23.584Z,99.90
2017-07-03T06:18:50.570Z,99.90
2017-07-03T06:21:16.846Z,99.90
2017-07-03T06:23:43.113Z,99.90
2017-07-03T06:26:10.403Z,99.90
2017-07-03T06:28:36.653Z,99.90
2017-07-03T06:31:02.916Z,99.90
2017-07-03T06:33:29.176Z,99.90
2017-07-03T06:35:55.445Z,99.90
2017-07-03T06:38:21.770Z,99.90
2017-07-03T06:40:48.041Z,99.90
2017-07-03T06:43:14.309Z,99.90
2017-07-03T06:45:40.561Z,99.90
2017-07-03T06:48:06.819Z,99.90
2017-07-03T06:50:33.105Z,99.90
2017-07-03T06:53:00.380Z,99.90
2017-07-03T06:55:26.654Z,99.90
2017-07-03T06:57:52.909Z,99.90
2017-07-03T07:00:19.193Z,99.90
2017-07-03T07:02:45.477Z,99.90
2017-07-03T07:05:11.777Z,99.90
2017-07-03T07:07:38.058Z,99.90
2017-07-03T07:10:04.323Z,99.90
2017-07-03T07:12:30.573Z,99.90
2017-07-03T07:14:56.850Z,99.90
2017-07-03T07:17:23.115Z,99.90
2017-07-03T07:19:49.386Z,99.90
2017-07-03T07:22:15.645Z,99.90
2017-07-03T07:24:41.906Z,99.90
2017-07-03T07:27:08.173Z,99.90
2017-07-03T07:29:34.470Z,99.90
2017-07-03T07:32:01.769Z,99.90
2017-07-03T07:34:28.777Z,99.90
2017-07-03T07:36:55.040Z,99.90
2017-07-03T07:39:22.045Z,99.90
2017-07-03T07:41:48.326Z,99.90
2017-07-03T07:44:14.601Z,99.90
2017-07-03T07:46:40.858Z,99.90
2017-07-03T07:49:08.190Z,99.90
2017-07-03T07:51:34.465Z,99.90
2017-07-03T07:54:00.741Z,99.90
2017-07-03T07:56:27.005Z,99.90
2017-07-03T07:58:53.289Z,99.90
2017-07-03T08:01:19.559Z,99.90
2017-07-03T08:03:45.821Z,99.90
2017-07-03T08:06:12.101Z,99.90
2017-07-03T08:08:38.382Z,99.90
2017-07-03T08:11:04.645Z,99.90
2017-07-03T08:13:30.909Z,99.90
2017-07-03T08:15:57.165Z,99.90
2017-07-03T08:18:23.445Z,99.90
2017-07-03T08:20:49.704Z,99.90
2017-07-03T08:23:16.701Z,99.90
2017-07-03T08:25:42.962Z,99.90
2017-07-03T08:28:09.221Z,99.90
2017-07-03T08:30:35.497Z,99.90
2017-07-03T08:33:01.761Z,99.90
2017-07-03T08:35:28.764Z,99.90
2017-07-03T08:37:55.029Z,99.90
2017-07-03T08:40:22.023Z,99.90
2017-07-03T08:42:48.305Z,99.90
2017-07-03T08:45:14.586Z,99.90
2017-07-03T08:47:41.869Z,99.90
2017-07-03T08:50:08.129Z,99.90
2017-07-03T08:52:35.129Z,99.90
2017-07-03T08:55:01.412Z,99.90
2017-07-03T08:57:27.698Z,99.90
2017-07-03T08:59:53.958Z,99.90
2017-07-03T09:02:20.963Z,99.90
2017-07-03T09:04:47.216Z,99.90
2017-07-03T09:07:13.860Z,99.90
2017-07-03T09:09:40.857Z,99.90
2017-07-03T09:12:07.133Z,99.90
2017-07-03T09:14:34.133Z,99.90
2017-07-03T09:17:00.385Z,99.90
2017-07-03T09:19:26.649Z,99.90
2017-07-03T09:21:52.933Z,99.90
2017-07-03T09:24:19.192Z,99.90
2017-07-03T09:26:45.445Z,99.90
2017-07-03T09:29:11.709Z,99.90
2017-07-03T09:31:39.033Z,99.90
2017-07-03T09:34:05.293Z,99.90
2017-07-03T09:36:31.575Z,99.90
2017-07-03T09:38:57.835Z,99.90
2017-07-03T09:41:24.081Z,99.90
2017-07-03T09:43:50.361Z,99.90
2017-07-03T09:46:17.386Z,99.90
2017-07-03T09:48:43.654Z,99.90
2017-07-03T09:51:09.908Z,99.90
2017-07-03T09:53:36.157Z,99.90
2017-07-03T09:56:02.427Z,99.90
2017-07-03T09:58:28.686Z,99.90
2017-07-03T10:00:54.953Z,99.90
2017-07-03T10:03:21.248Z,99.90
2017-07-03T10:05:47.518Z,99.50
2017-07-03T10:08:14.518Z,99.90
2017-07-03T10:10:40.806Z,99.90
2017-07-03T10:13:07.808Z,99.90
2017-07-03T10:15:34.054Z,99.90
2017-07-03T10:18:00.304Z,99.90
2017-07-03T10:20:27.302Z,96.00
2017-07-03T10:22:53.584Z,96.00
2017-07-03T10:25:19.842Z,93.50
2017-07-03T10:27:46.105Z,97.30
2017-07-03T10:30:12.357Z,95.60
2017-07-03T10:32:39.356Z,96.40
2017-07-03T10:35:05.689Z,96.50
2017-07-03T10:37:31.942Z,98.00
2017-07-03T10:39:58.214Z,92.70
2017-07-03T10:42:24.474Z,92.10
2017-07-03T10:44:50.730Z,95.00
2017-07-03T10:47:17.005Z,91.30
2017-07-03T10:49:43.265Z,83.50
2017-07-03T10:52:09.525Z,87.60
2017-07-03T10:54:35.793Z,85.80
2017-07-03T10:57:02.053Z,91.90
2017-07-03T10:59:28.333Z,87.70
2017-07-03T11:01:54.598Z,83.00
2017-07-03T11:04:20.858Z,89.40
2017-07-03T11:06:47.144Z,81.40
2017-07-03T11:09:13.417Z,81.90
2017-07-03T11:11:39.696Z,83.50
2017-07-03T11:14:06.964Z,77.20
2017-07-03T11:16:33.229Z,79.40
2017-07-03T11:18:59.501Z,77.00
2017-07-03T11:21:25.793Z,76.50
2017-07-03T11:23:52.075Z,78.40
2017-07-03T11:26:18.331Z,77.40
2017-07-03T11:28:44.596Z,78.10
2017-07-03T11:31:10.854Z,79.10
2017-07-03T11:33:37.107Z,75.40
2017-07-03T11:36:03.385Z,79.80
2017-07-03T11:38:30.381Z,77.00
2017-07-03T11:40:56.633Z,76.90
2017-07-03T11:43:22.885Z,74.50
2017-07-03T11:45:49.877Z,81.60
2017-07-03T11:48:16.177Z,81.50
2017-07-03T11:50:42.432Z,83.20
2017-07-03T11:53:09.701Z,82.90
2017-07-03T11:55:35.967Z,91.80
2017-07-03T11:58:02.958Z,92.40
2017-07-03T12:00:29.241Z,92.40
2017-07-03T12:02:56.234Z,95.90
2017-07-03T12:05:22.494Z,95.90
2017-07-03T12:07:48.770Z,95.20
2017-07-03T12:10:15.024Z,98.40
2017-07-03T12:12:41.287Z,99.90
2017-07-03T12:15:08.297Z,99.90
2017-07-03T12:17:34.578Z,99.90
2017-07-03T12:20:01.582Z,99.90
2017-07-03T12:22:27.847Z,99.90
2017-07-03T12:24:55.865Z,99.90
2017-07-03T12:27:22.156Z,99.90
2017-07-03T12:29:48.449Z,99.90
2017-07-03T12:32:14.713Z,97.10
2017-07-03T12:34:41.696Z,89.20
2017-07-03T12:37:07.974Z,89.10
2017-07-03T12:39:34.985Z,87.90
2017-07-03T12:42:01.237Z,87.90
2017-07-03T12:44:27.488Z,90.50
2017-07-03T12:46:54.498Z,92.20
2017-07-03T12:49:20.765Z,91.70
2017-07-03T12:51:47.777Z,87.80
2017-07-03T12:54:14.037Z,87.70
2017-07-03T12:56:40.309Z,83.00
2017-07-03T12:59:06.592Z,81.10
2017-07-03T13:01:33.600Z,73.10
2017-07-03T13:03:59.879Z,73.10
2017-07-03T13:06:26.144Z,69.70
2017-07-03T13:08:52.401Z,68.30
2017-07-03T13:11:18.656Z,65.90
2017-07-03T13:13:44.921Z,64.40
2017-07-03T13:16:11.221Z,60.90
2017-07-03T13:18:37.489Z,60.20
2017-07-03T13:21:03.749Z,56.30
2017-07-03T13:23:30.030Z,56.40
2017-07-03T13:25:56.290Z,52.80
2017-07-03T13:28:23.582Z,54.50
2017-07-03T13:30:49.841Z,50.30
2017-07-03T13:33:16.115Z,52.10
2017-07-03T13:35:43.132Z,48.50
2017-07-03T13:38:09.397Z,48.50
2017-07-03T13:40:36.433Z,46.80
2017-07-03T13:43:02.693Z,46.70
2017-07-03T13:45:28.949Z,47.10
2017-07-03T13:47:55.217Z,48.20
2017-07-03T13:50:21.490Z,49.80
2017-07-03T13:52:47.787Z,50.20
2017-07-03T13:55:14.789Z,45.30
2017-07-03T13:57:41.058Z,45.30
2017-07-03T14:00:07.342Z,45.70
2017-07-03T14:02:33.597Z,42.20
2017-07-03T14:04:59.878Z,40.80
2017-07-03T14:07:26.134Z,42.20
2017-07-03T14:09:52.401Z,45.10
2017-07-03T14:12:18.660Z,45.50
2017-07-03T14:14:44.934Z,46.20
2017-07-03T14:17:11.220Z,45.20
2017-07-03T14:19:37.482Z,44.60
2017-07-03T14:22:03.733Z,42.20
2017-07-03T14:24:30.000Z,43.20
2017-07-03T14:26:56.265Z,43.60
2017-07-03T14:29:22.541Z,42.00
2017-07-03T14:31:49.574Z,44.80
2017-07-03T14:34:15.825Z,44.80
2017-07-03T14:36:42.078Z,43.50
2017-07-03T14:39:08.333Z,42.40
2017-07-03T14:41:34.617Z,42.10
2017-07-03T14:44:00.902Z,41.60
2017-07-03T14:46:27.153Z,41.00
2017-07-03T14:48:54.170Z,40.10
2017-07-03T14:51:20.468Z,40.10
2017-07-03T14:53:46.761Z,40.50
2017-07-03T14:56:13.766Z,42.60
2017-07-03T14:58:40.034Z,42.50
2017-07-03T15:01:06.289Z,39.70
2017-07-03T15:03:32.558Z,41.00
2017-07-03T15:05:58.837Z,43.10
2017-07-03T15:08:25.114Z,43.60
2017-07-03T15:10:51.384Z,41.90
2017-07-03T15:13:17.681Z,43.30
2017-07-03T15:15:43.949Z,41.00
2017-07-03T15:18:10.210Z,39.90
2017-07-03T15:20:36.497Z,39.50
2017-07-03T15:23:03.493Z,41.70
2017-07-03T15:25:29.749Z,41.60
2017-07-03T15:27:56.041Z,40.20
2017-07-03T15:30:22.310Z,40.90
2017-07-03T15:32:48.566Z,38.70
2017-07-03T15:35:14.829Z,40.60
2017-07-03T15:37:41.105Z,39.60
2017-07-03T15:40:08.125Z,40.30
2017-07-03T15:42:34.373Z,40.30
2017-07-03T15:45:00.624Z,41.20
2017-07-03T15:47:27.626Z,45.20
2017-07-03T15:49:53.894Z,45.20
2017-07-03T15:52:20.909Z,44.50
2017-07-03T15:54:47.174Z,44.50
2017-07-03T15:57:14.185Z,43.00
2017-07-03T15:59:40.441Z,43.00
2017-07-03T16:02:06.696Z,43.00
2017-07-03T16:04:33.006Z,43.80
2017-07-03T16:06:59.270Z,44.00
2017-07-03T16:09:25.525Z,40.90
2017-07-03T16:11:51.811Z,39.50
2017-07-03T16:14:18.079Z,39.50
2017-07-03T16:16:44.360Z,38.30
2017-07-03T16:19:10.630Z,40.30
2017-07-03T16:21:36.886Z,38.00
2017-07-03T16:24:03.133Z,36.70
2017-07-03T16:26:30.177Z,40.50
2017-07-03T16:28:56.454Z,40.40
2017-07-03T16:31:22.742Z,41.40
2017-07-03T16:33:49.024Z,43.20
2017-07-03T16:36:15.315Z,44.20
2017-07-03T16:38:41.586Z,44.30
2017-07-03T16:41:07.861Z,46.20
2017-07-03T16:43:34.118Z,45.80
2017-07-03T16:46:00.390Z,42.80
2017-07-03T16:48:26.703Z,41.30
2017-07-03T16:50:52.976Z,40.60
2017-07-03T16:53:19.261Z,41.50
2017-07-03T16:55:45.521Z,42.70
2017-07-03T16:58:11.769Z,42.40
2017-07-03T17:00:38.029Z,41.50
2017-07-03T17:03:04.305Z,39.50
2017-07-03T17:05:31.826Z,39.60
2017-07-03T17:07:58.101Z,38.80
2017-07-03T17:10:24.362Z,40.80
2017-07-03T17:12:50.880Z,40.40
2017-07-03T17:15:17.145Z,42.80
2017-07-03T17:17:43.434Z,45.20
2017-07-03T17:20:09.713Z,47.30
2017-07-03T17:22:35.965Z,47.80
2017-07-03T17:25:02.237Z,51.30
2017-07-03T17:27:28.514Z,50.90
2017-07-03T17:29:54.796Z,53.10
2017-07-03T17:32:21.065Z,51.60
2017-07-03T17:34:47.333Z,51.90
2017-07-03T17:37:13.598Z,51.90
2017-07-03T17:39:39.901Z,52.20
2017-07-03T17:42:06.191Z,51.80
2017-07-03T17:44:32.468Z,52.70
2017-07-03T17:46:58.748Z,51.60
2017-07-03T17:49:25.013Z,53.90
2017-07-03T17:51:51.282Z,56.60
2017-07-03T17:54:17.553Z,56.40
2017-07-03T17:56:44.565Z,58.20
2017-07-03T17:59:11.837Z,58.00
2017-07-03T18:01:38.854Z,56.40
2017-07-03T18:04:05.106Z,56.40
2017-07-03T18:06:31.373Z,58.00
2017-07-03T18:08:57.654Z,57.40
2017-07-03T18:11:23.902Z,61.40
2017-07-03T18:13:50.902Z,70.40
2017-07-03T18:16:17.205Z,70.30
2017-07-03T18:18:43.461Z,65.20
2017-07-03T18:21:09.734Z,75.10
2017-07-03T18:23:36.733Z,95.40
2017-07-03T18:26:02.988Z,95.40
2017-07-03T18:28:29.246Z,99.90
2017-07-03T18:30:55.509Z,97.00
2017-07-03T18:33:21.790Z,99.90
2017-07-03T18:35:49.865Z,99.90
2017-07-03T18:38:16.865Z,99.90
2017-07-03T18:40:43.126Z,99.90
2017-07-03T18:43:09.387Z,99.90
2017-07-03T18:45:36.691Z,99.90
2017-07-03T18:48:02.937Z,99.90
2017-07-03T18:50:29.308Z,99.90
2017-07-03T18:52:55.562Z,99.90
2017-07-03T18:55:21.826Z,99.90
2017-07-03T18:57:48.114Z,99.90
2017-07-03T19:00:14.380Z,99.90
2017-07-03T19:02:40.650Z,99.90
2017-07-03T19:05:06.909Z,99.90
2017-07-03T19:07:33.173Z,99.90
2017-07-03T19:09:59.449Z,99.90
2017-07-03T19:12:25.702Z,99.90
2017-07-03T19:14:51.962Z,99.90
2017-07-03T19:17:18.974Z,99.90
2017-07-03T19:19:45.237Z,99.90
2017-07-03T19:22:11.534Z,99.90
2017-07-03T19:24:37.844Z,99.90
2017-07-03T19:27:04.113Z,99.90
2017-07-03T19:29:31.130Z,99.90
2017-07-03T19:31:57.392Z,99.90
2017-07-03T19:34:23.693Z,99.90
2017-07-03T19:36:49.949Z,99.90
2017-07-03T19:39:16.226Z,99.90
2017-07-03T19:41:42.489Z,99.90
2017-07-03T19:44:09.200Z,99.90
2017-07-03T19:46:35.497Z,99.90
2017-07-03T19:49:02.829Z,99.90
2017-07-03T19:51:29.165Z,99.90
2017-07-03T19:53:55.437Z,99.90
2017-07-03T19:56:21.837Z,99.90
2017-07-03T19:58:48.157Z,99.90
2017-07-03T20:01:14.447Z,99.90
2017-07-03T20:03:40.723Z,99.90
2017-07-03T20:06:07.001Z,99.90
2017-07-03T20:08:33.282Z,99.90
2017-07-03T20:10:59.569Z,99.90
2017-07-03T20:13:25.963Z,99.90
2017-07-03T20:15:52.229Z,99.90
2017-07-03T20:18:18.489Z,99.90
2017-07-03T20:20:44.765Z,99.90
2017-07-03T20:23:11.054Z,99.90
2017-07-03T20:25:38.053Z,99.90
2017-07-03T20:28:04.318Z,99.90
2017-07-03T20:30:30.617Z,99.90
2017-07-03T20:32:56.887Z,99.90
2017-07-03T20:35:23.897Z,99.90
2017-07-03T20:37:50.174Z,99.90
2017-07-03T20:40:16.433Z,99.90
2017-07-03T20:42:42.760Z,99.90
2017-07-03T20:45:09.032Z,99.90
2017-07-03T20:47:36.038Z,99.90
2017-07-03T20:50:02.331Z,99.90
2017-07-03T20:52:28.622Z,99.90
2017-07-03T20:54:54.887Z,99.90
2017-07-03T20:57:21.163Z,99.90
2017-07-03T20:59:47.429Z,99.90
2017-07-03T21:02:14.459Z,99.90
2017-07-03T21:04:40.730Z,99.90
2017-07-03T21:07:06.993Z,99.90
2017-07-03T21:09:33.278Z,99.90
2017-07-03T21:11:59.564Z,99.90
2017-07-03T21:14:25.856Z,99.90
2017-07-03T21:16:52.133Z,99.90
2017-07-03T21:19:18.405Z,99.90
2017-07-03T21:21:44.673Z,99.90
2017-07-03T21:24:10.945Z,99.90
2017-07-03T21:26:37.990Z,99.90
2017-07-03T21:29:05.013Z,99.90
2017-07-03T21:31:31.301Z,99.90
2017-07-03T21:33:57.563Z,99.90
2017-07-03T21:36:23.829Z,99.90
2017-07-03T21:38:50.882Z,99.90
2017-07-03T21:41:17.165Z,99.90
2017-07-03T21:43:43.422Z,99.90
2017-07-03T21:46:11.441Z,99.90
2017-07-03T21:48:37.742Z,99.90
2017-07-03T21:51:04.037Z,99.90
2017-07-03T21:53:30.297Z,99.90
2017-07-03T21:55:56.561Z,99.90
2017-07-03T21:58:23.852Z,99.90
2017-07-03T22:00:50.866Z,99.90
2017-07-03T22:03:18.182Z,99.90
2017-07-03T22:05:44.445Z,99.90
2017-07-03T22:08:10.698Z,99.90
2017-07-03T22:10:36.989Z,99.90
2017-07-03T22:13:03.276Z,99.90
2017-07-03T22:15:29.574Z,99.90
2017-07-03T22:17:56.090Z,99.90
2017-07-03T22:20:22.354Z,99.90
2017-07-03T22:22:49.412Z,99.90
2017-07-03T22:25:15.679Z,99.90
2017-07-03T22:27:41.956Z,99.90
2017-07-03T22:30:09.277Z,99.90
2017-07-03T22:32:35.536Z,99.90
2017-07-03T22:35:02.829Z,99.90
2017-07-03T22:37:29.089Z,99.90
2017-07-03T22:39:55.383Z,99.90
2017-07-03T22:42:21.653Z,99.90
2017-07-03T22:44:47.960Z,99.90
2017-07-03T22:47:14.244Z,99.90
2017-07-03T22:49:41.241Z,99.90
2017-07-03T22:52:07.530Z,99.90
2017-07-03T22:54:34.528Z,99.90
2017-07-03T22:57:00.785Z,99.90
2017-07-03T22:59:27.053Z,99.90
2017-07-03T23:01:53.330Z,99.90
2017-07-03T23:04:19.636Z,99.90
2017-07-03T23:06:45.920Z,99.90
2017-07-03T23:09:12.936Z,99.90
2017-07-03T23:11:39.210Z,99.90
2017-07-03T23:14:05.465Z,99.90
2017-07-03T23:16:31.749Z,99.90
2017-07-03T23:18:58.789Z,99.90
2017-07-03T23:21:25.073Z,99.90
2017-07-03T23:23:51.329Z,99.90
2017-07-03T23:26:17.639Z,99.90
2017-07-03T23:28:43.901Z,99.90
2017-07-03T23:31:10.938Z,99.90
2017-07-03T23:33:37.210Z,99.90
2017-07-03T23:36:03.478Z,99.90
2017-07-03T23:38:29.751Z,99.90
2017-07-03T23:40:56.025Z,99.90
2017-07-03T23:43:22.349Z,99.90
2017-07-03T23:45:48.611Z,99.90
2017-07-03T23:48:14.867Z,99.90
2017-07-03T23:50:41.189Z,99.90
2017-07-03T23:53:07.502Z,99.90
2017-07-03T23:55:33.796Z,99.90
2017-07-03T23:58:00.057Z,99.90
